Quick Links (Output Below):   Max & Min Temps   /   Climate Reports   /   Zone Forecasts
River Forecasts   /   Forestry Forecasts   /   Aviation Forecasts   /   Radars   /   Features

Terminal Aerodrome Forecast (Highfill)

Pick a Site:
Arkadelphia | El Dorado | Fayetteville | Fort Smith | Harrison | Highfill | Hot Springs | Jonesboro
Little Rock | Monticello | Mountain Home | Pine Bluff | Texarkana
 Forecast 

KXNA 301120Z 3012/3112 VRB03KT P6SM SCT050 SCT250 PROB30 3106/3112
      5SM -TSRA BKN040CB=


 Latest METARs (Observations) 
How to Decode METARs
14Z KXNA 301353Z 20005KT 10SM CLR 25/23 A3004 RMK AO2 SLP158
         T02500233
         
13Z KXNA 301253Z 18003KT 6SM BR CLR 23/23 A3003 RMK AO2 SLP154
         T02280228
         
12Z KXNA 301153Z 00000KT 6SM BR CLR 21/21 A3002 RMK AO2 SLP150
         T02110211 10233 20206 53006
         
11Z KXNA 301053Z 20004KT 8SM CLR 22/21 A3001 RMK AO2 SLP145
         T02170211
         
10Z KXNA 300953Z 26003KT 10SM CLR 21/21 A3000 RMK AO2 SLP142
         T02110206
         
09Z KXNA 300853Z AUTO 25003KT 10SM CLR 22/21 A3000 RMK AO2 SLP143
         T02170211 55004
         
08Z KXNA 300753Z AUTO 00000KT 10SM CLR 22/22 A3000 RMK AO2 SLP142
         T02220217
         
07Z KXNA 300653Z AUTO 26005KT 10SM SCT028 BKN037 23/22 A3000 RMK AO2
         SLP144 T02280217
         
06Z KXNA 300553Z AUTO 00000KT 10SM CLR 22/22 A3001 RMK AO2 SLP149
         T02220217 10300 20222 403110222 51007
         
05Z KXNA 300453Z AUTO 00000KT 10SM BKN040 BKN048 23/22 A3001 RMK AO2
         SLP147 T02330222
         
***** Today's Observations (Above) *****


Back to Main Page
http://www.srh.noaa.gov/lzk/qfcst.php

USA.gov is the U.S. government's official web portal to all federal, state and local government web resources and services.